Wednesday, September 20, 2017, 9:36 PM EDT

KGED, Georgetown Sussex Co Airport

Location: Georgetown, DE, United States Lat: 38.683
Local Time: 9:36 PM EDT ( 1:36 GMT) Lon: -75.367
Time Zone: US/Eastern Elev: 52 ft

Show me the last for .
Show Decoded

2017-09-20 20:54 METAR KGED 210054Z AUTO 00000KT 10SM BKN050 24/21 A2993 RMK AO2 SLP136 T02390206
                 =
2017-09-20 19:54 METAR KGED 202354Z AUTO 00000KT 10SM CLR 25/21 A2992 RMK AO2 SLP131 T02500206
                 10294 20250 53009 =
2017-09-20 18:54 METAR KGED 202254Z AUTO 00000KT 10SM CLR 27/20 A2991 RMK AO2 SLP126 T02720200 =
2017-09-20 17:54 METAR KGED 202154Z AUTO VRB04KT 10SM CLR 29/20 A2990 RMK AO2 SLP125 T02890200 =
2017-09-20 16:54 METAR KGED 202054Z AUTO 33005KT 10SM CLR 29/19 A2989 RMK AO2 SLP122 T02890194
                 55000 =
2017-09-20 15:54 METAR KGED 201954Z AUTO 31007KT 280V340 10SM FEW036 SCT120 29/20 A2989 RMK AO2
                 SLP119 T02890200 =
2017-09-20 14:54 METAR KGED 201854Z AUTO 33009G15KT 10SM BKN036 BKN045 29/19 A2990 RMK AO2 SLP122
                 T02890194 =
2017-09-20 13:54 METAR KGED 201754Z AUTO VRB06KT 10SM SCT032 SCT039 29/20 A2990 RMK AO2 SLP122
                 T02890200 10289 20211 58005 =
2017-09-20 12:54 METAR KGED 201654Z AUTO 31009KT 10SM SCT034 28/19 A2991 RMK AO2 SLP127 T02780194
                 =
2017-09-20 12:40 METAR KGED 201640Z AUTO 33006KT 10SM SCT032 28/19 A2991 RMK AO2 T02780194 =
2017-09-20 12:07 METAR KGED 201607Z AUTO 32005KT 10SM BKN027 27/19 A2992 RMK AO2 T02670194 =
2017-09-20 11:54 METAR KGED 201554Z AUTO 33009G15KT 10SM SCT027 27/19 A2991 RMK AO2 SLP129
                 T02670189 =
2017-09-20 11:50 METAR KGED 201550Z AUTO 34008KT 10SM BKN027 27/19 A2991 RMK AO2 =
2017-09-20 10:54 METAR KGED 201454Z AUTO 34006G18KT 10SM SCT025 26/19 A2991 RMK AO2 SLP129
                 T02610189 51008 =
2017-09-20 09:54 METAR KGED 201354Z AUTO 34008KT 10SM CLR 25/18 A2991 RMK AO2 SLP127 T02500183 =
2017-09-20 08:54 METAR KGED 201254Z AUTO 35006KT 10SM SCT060 24/18 A2990 RMK AO2 SLP125 T02390183
                 =
2017-09-20 07:54 METAR KGED 201154Z AUTO 33005KT 10SM FEW049 BKN065 21/18 A2989 RMK AO2 SLP120
                 7//// T02110178 10222 20206 51018 $ =
2017-09-20 06:54 METAR KGED 201054Z AUTO 33004KT 10SM BKN049 OVC060 21/18 A2988 RMK AO2 SLP118
                 T02110178 $ =
2017-09-20 05:54 METAR KGED 200954Z AUTO 31006KT 10SM 21/18 A2986 RMK AO2 SLP111 T02110183 $ =
2017-09-20 05:47 METAR KGED 200947Z AUTO 31006KT 10SM 21/18 A2986 RMK AO2 T02110183 $ =
2017-09-20 04:54 METAR KGED 200854Z AUTO VRB05KT 10SM OVC021 21/18 A2984 RMK AO2 SLP103 T02060183
                 55001 $ =
2017-09-20 04:44 METAR KGED 200844Z AUTO 30005KT 10SM BKN021 OVC049 21/18 A2984 RMK AO2 T02110183
                 $ =
2017-09-20 04:23 METAR KGED 200823Z AUTO VRB04KT 10SM SCT022 BKN049 21/18 A2983 RMK AO2 T02110183
                 $ =
2017-09-20 03:54 METAR KGED 200754Z AUTO VRB06KT 10SM OVC022 21/19 A2983 RMK AO2 SLP101 T02110189
                 $ =
2017-09-20 03:07 METAR KGED 200707Z AUTO VRB05KT 10SM BKN022 22/19 A2983 RMK AO2 T02170189 $ =
2017-09-20 02:54 METAR KGED 200654Z AUTO 32005KT 10SM FEW022 SCT045 22/19 A2983 RMK AO2 SLP101
                 T02170189 $ =
2017-09-20 02:20 METAR KGED 200620Z AUTO VRB05KT 10SM SCT022 OVC045 22/19 A2983 RMK AO2 T02170189
                 $ =
2017-09-20 01:54 METAR KGED 200554Z AUTO VRB06KT 10SM OVC022 22/19 A2984 RMK AO2 SLP104 6////
                 T02220189 10222 20211 56004 $ =
2017-09-20 00:54 METAR KGED 200454Z AUTO 34005KT 10SM OVC020 22/19 A2984 RMK AO2 SLP104 T02220189
                 402330211 $ =
2017-09-19 23:54 METAR KGED 200354Z AUTO 36005KT 10SM OVC020 22/19 A2984 RMK AO2 SLP105 T02220189
                 $ =
2017-09-19 22:54 METAR KGED 200254Z AUTO 35008KT 10SM OVC021 22/19 A2985 RMK AO2 SLP108 6////
                 T02220189 58000 $ =
2017-09-19 21:54 METAR KGED 200154Z AUTO 34007KT 10SM OVC025 22/19 A2985 RMK AO2 SLP108 T02170189
                 $ =
2017-09-19 21:41 METAR KGED 200141Z AUTO 35009KT 10SM OVC025 22/19 A2985 RMK AO2 T02170189 $ =

Support USWX by starting your Amazon purchase here.